Time;durP1;ratioP1;P1;durP2;ratioP2;P2;SDS_P1;SDS_P2;PMS_P1;PMS_P2;Temp;Humidity;BMP_temperature;BMP_pressure;BME280_temperature;BME280_humidity;BME280_pressure;Samples;Min_cycle;Max_cycle;Signal;HPM_P1;HPM_P2
2020/12/08 00:02:16;;;;;;;75.65;32.58;;;9.40;63.50;;;;;;4938609;28;20135;-63
2020/12/08 00:04:42;;;;;;;83.75;34.67;;;9.30;63.50;;;;;;4934499;28;20126;-63
2020/12/08 00:07:09;;;;;;;80.97;34.50;;;9.30;63.50;;;;;;4937258;28;20068;-63
2020/12/08 00:09:35;;;;;;;79.32;33.08;;;9.30;63.50;;;;;;4945155;28;20957;-63
2020/12/08 00:12:01;;;;;;;78.63;34.35;;;9.30;63.50;;;;;;4931638;28;20153;-63
2020/12/08 00:14:27;;;;;;;77.95;34.33;;;9.30;63.50;;;;;;4940158;28;20042;-63
2020/12/08 00:16:52;;;;;;;76.50;34.45;;;9.30;63.50;;;;;;4943396;28;20049;-63
2020/12/08 00:19:18;;;;;;;83.38;32.47;;;9.20;64.30;;;;;;4932194;28;20039;-63
2020/12/08 00:21:45;;;;;;;77.85;32.92;;;9.20;63.50;;;;;;4934328;28;20049;-63
2020/12/08 00:24:14;;;;;;;78.70;33.88;;;9.20;63.60;;;;;;4933045;28;20274;-63
2020/12/08 00:26:41;;;;;;;79.60;33.53;;;9.20;63.60;;;;;;4936973;28;20121;-63
2020/12/08 00:29:08;;;;;;;77.90;33.17;;;9.20;63.60;;;;;;4938501;28;20044;-63
2020/12/08 00:31:34;;;;;;;78.78;32.53;;;9.20;63.60;;;;;;4941494;28;20397;-63
2020/12/08 00:34:00;;;;;;;78.22;32.63;;;9.20;63.70;;;;;;4941381;28;20054;-63
2020/12/08 00:36:26;;;;;;;80.72;33.90;;;9.20;63.70;;;;;;4936143;28;20057;-63
2020/12/08 00:38:52;;;;;;;76.38;31.75;;;9.10;63.60;;;;;;4933748;28;20053;-63
2020/12/08 00:41:22;;;;;;;75.05;33.92;;;9.10;63.70;;;;;;4939420;28;20128;-63
2020/12/08 00:43:49;;;;;;;80.45;32.25;;;9.10;63.70;;;;;;4927625;28;20074;-63
2020/12/08 00:46:20;;;;;;;77.95;32.97;;;9.10;64.40;;;;;;4935499;28;20160;-63
2020/12/08 00:48:46;;;;;;;76.78;32.60;;;9.10;63.70;;;;;;4935617;28;20081;-63
2020/12/08 00:51:13;;;;;;;78.82;33.47;;;9.10;63.70;;;;;;4938044;28;20763;-63
2020/12/08 00:53:38;;;;;;;74.90;33.08;;;9.10;63.60;;;;;;4932966;28;20618;-63
2020/12/08 00:56:09;;;;;;;81.53;32.92;;;9.10;63.60;;;;;;4937003;28;20132;-63
2020/12/08 00:58:35;;;;;;;76.25;31.95;;;9.20;63.70;;;;;;4935199;28;20097;-63
2020/12/08 01:01:01;;;;;;;77.30;32.95;;;9.10;63.60;;;;;;4935152;28;20753;-63
2020/12/08 01:03:27;;;;;;;72.57;32.78;;;9.10;63.60;;;;;;4920838;28;20039;-63
2020/12/08 01:05:52;;;;;;;74.65;32.35;;;9.10;63.70;;;;;;4933019;28;20043;-63
2020/12/08 01:08:18;;;;;;;79.28;31.05;;;9.10;63.70;;;;;;4937088;28;20050;-63
2020/12/08 01:10:43;;;;;;;75.32;33.60;;;9.10;63.60;;;;;;4942124;28;20108;-63
2020/12/08 01:13:09;;;;;;;79.88;33.50;;;9.10;63.60;;;;;;4938985;28;20886;-63
2020/12/08 01:15:35;;;;;;;70.15;31.10;;;9.10;63.60;;;;;;4937701;28;20042;-63
2020/12/08 01:18:00;;;;;;;81.63;32.97;;;9.10;63.60;;;;;;4936386;28;20157;-63
2020/12/08 01:20:26;;;;;;;79.57;32.05;;;9.00;63.50;;;;;;4940094;28;20066;-63
2020/12/08 01:22:52;;;;;;;72.28;30.63;;;9.00;63.50;;;;;;4937045;28;20046;-64
2020/12/08 01:25:18;;;;;;;71.13;31.52;;;9.00;63.60;;;;;;4936191;28;20046;-63
2020/12/08 01:27:44;;;;;;;71.30;31.02;;;9.00;63.60;;;;;;4932657;28;20077;-63
2020/12/08 01:30:09;;;;;;;71.75;31.65;;;9.00;63.60;;;;;;4940829;28;20051;-63
2020/12/08 01:32:37;;;;;;;71.47;31.75;;;9.00;63.60;;;;;;4936760;28;20044;-63
2020/12/08 01:35:03;;;;;;;71.55;31.77;;;9.00;63.60;;;;;;4942026;28;20035;-63
2020/12/08 01:37:29;;;;;;;72.80;31.02;;;9.00;63.50;;;;;;4937429;28;20074;-63
2020/12/08 01:39:55;;;;;;;71.68;30.63;;;9.00;63.50;;;;;;4935556;28;20505;-63
2020/12/08 01:42:20;;;;;;;75.18;32.33;;;9.00;63.50;;;;;;4934112;28;20629;-63
2020/12/08 01:44:48;;;;;;;69.03;30.65;;;9.00;63.60;;;;;;4938375;28;20561;-63
2020/12/08 01:47:15;;;;;;;74.18;31.00;;;8.90;63.50;;;;;;4935121;28;20051;-63
2020/12/08 01:49:47;;;;;;;77.82;32.25;;;8.90;63.50;;;;;;4936813;28;20046;-63
2020/12/08 01:52:16;;;;;;;71.38;31.52;;;8.90;63.40;;;;;;4944703;28;20051;-63
2020/12/08 01:54:42;;;;;;;73.70;31.30;;;8.90;63.50;;;;;;4933293;28;20039;-63
2020/12/08 01:57:08;;;;;;;68.25;30.38;;;8.90;63.40;;;;;;4934393;28;20054;-63
2020/12/08 01:59:34;;;;;;;71.00;31.42;;;8.90;63.50;;;;;;4938127;28;20053;-63
2020/12/08 02:01:59;;;;;;;69.57;29.23;;;8.80;63.40;;;;;;4938114;28;20050;-63
2020/12/08 02:04:25;;;;;;;65.78;29.80;;;8.90;63.40;;;;;;4933688;28;21553;-63
2020/12/08 02:06:50;;;;;;;69.25;29.88;;;8.80;63.40;;;;;;4939742;28;20049;-63
2020/12/08 02:09:16;;;;;;;71.18;30.63;;;8.80;63.40;;;;;;4934959;28;20050;-63
2020/12/08 02:11:42;;;;;;;71.00;29.85;;;8.90;63.50;;;;;;4936552;28;20416;-63
2020/12/08 02:14:07;;;;;;;63.80;29.08;;;8.80;63.40;;;;;;4933841;28;20053;-63
2020/12/08 02:16:36;;;;;;;65.38;29.25;;;8.90;63.60;;;;;;4941062;28;20066;-63
2020/12/08 02:19:01;;;;;;;66.00;29.20;;;8.80;63.60;;;;;;4937150;28;20117;-63
2020/12/08 02:21:32;;;;;;;67.03;29.15;;;8.80;63.60;;;;;;4938709;28;20492;-63
2020/12/08 02:23:59;;;;;;;65.53;28.05;;;8.80;63.60;;;;;;4940433;28;20582;-63
2020/12/08 02:26:25;;;;;;;66.55;30.35;;;8.80;63.60;;;;;;4936117;28;20054;-63
2020/12/08 02:28:51;;;;;;;66.75;28.30;;;8.80;63.60;;;;;;4934990;28;20138;-63
2020/12/08 02:31:16;;;;;;;62.45;28.58;;;8.80;63.60;;;;;;4941428;28;20042;-63
2020/12/08 02:33:42;;;;;;;56.25;26.48;;;8.80;63.70;;;;;;4935170;28;20054;-63
2020/12/08 02:36:08;;;;;;;57.97;26.77;;;8.80;63.70;;;;;;4935940;28;20603;-63
2020/12/08 02:38:34;;;;;;;63.40;27.63;;;8.80;63.70;;;;;;4939221;28;20400;-63
2020/12/08 02:41:00;;;;;;;64.78;28.88;;;8.80;63.60;;;;;;4942238;28;20109;-63
2020/12/08 02:43:28;;;;;;;61.17;27.17;;;8.80;63.70;;;;;;4939112;28;20047;-63
2020/12/08 02:45:54;;;;;;;57.92;26.35;;;8.80;63.60;;;;;;4941144;28;20046;-63
2020/12/08 02:48:20;;;;;;;65.75;27.25;;;8.80;63.60;;;;;;4933883;28;20122;-63
2020/12/08 02:50:45;;;;;;;61.92;27.13;;;8.80;63.70;;;;;;4937704;28;20482;-63
2020/12/08 02:53:11;;;;;;;54.80;25.25;;;8.80;63.70;;;;;;4932531;28;20133;-63
2020/12/08 02:55:37;;;;;;;52.63;25.45;;;8.80;63.70;;;;;;4935472;28;20463;-63
2020/12/08 02:58:03;;;;;;;57.55;25.77;;;8.80;63.60;;;;;;4938955;28;20275;-63
2020/12/08 03:00:31;;;;;;;57.90;27.23;;;8.80;63.70;;;;;;4938804;28;20531;-63
2020/12/08 03:02:56;;;;;;;57.72;25.83;;;8.80;63.70;;;;;;4942956;28;20663;-63
2020/12/08 03:05:22;;;;;;;56.58;27.05;;;8.80;63.70;;;;;;4941797;28;20045;-63
2020/12/08 03:07:48;;;;;;;55.33;26.08;;;8.80;63.70;;;;;;4935530;28;20039;-63
2020/12/08 03:10:14;;;;;;;55.30;25.75;;;8.80;63.70;;;;;;4933336;28;20061;-63
2020/12/08 03:12:42;;;;;;;56.17;25.30;;;8.80;63.70;;;;;;4942438;28;20169;-63
2020/12/08 03:15:07;;;;;;;52.67;25.55;;;8.80;63.70;;;;;;4940523;28;20093;-63
2020/12/08 03:17:34;;;;;;;54.35;24.00;;;8.80;63.70;;;;;;4937972;28;20484;-63
2020/12/08 03:19:59;;;;;;;51.22;24.88;;;8.90;63.70;;;;;;4932432;28;20047;-63
2020/12/08 03:22:25;;;;;;;53.35;26.02;;;8.90;63.70;;;;;;4938116;28;20804;-63
2020/12/08 03:24:51;;;;;;;55.67;25.38;;;8.90;63.70;;;;;;4944378;28;20511;-63
2020/12/08 03:27:17;;;;;;;56.67;25.70;;;8.90;63.60;;;;;;4937506;28;20050;-63
2020/12/08 03:29:43;;;;;;;57.17;24.77;;;8.90;63.60;;;;;;4932362;28;20113;-63
2020/12/08 03:32:08;;;;;;;52.83;24.85;;;8.90;63.60;;;;;;4937543;28;20067;-63
2020/12/08 03:34:34;;;;;;;48.83;24.30;;;8.90;63.60;;;;;;4935050;28;20055;-63
2020/12/08 03:37:00;;;;;;;54.35;25.45;;;8.90;63.50;;;;;;4938072;28;20051;-63
2020/12/08 03:39:26;;;;;;;53.67;24.48;;;8.90;63.50;;;;;;4948301;28;20081;-63
2020/12/08 03:42:02;;;;;;;55.60;24.50;;;8.90;63.50;;;;;;4933337;28;20713;-63
2020/12/08 03:44:28;;;;;;;52.47;24.85;;;8.90;63.30;;;;;;4940812;28;20062;-63
2020/12/08 03:46:58;;;;;;;53.38;24.83;;;8.90;63.40;;;;;;4935103;28;20626;-63
2020/12/08 03:49:26;;;;;;;51.17;24.75;;;8.90;63.30;;;;;;4934180;28;20042;-63
2020/12/08 03:51:53;;;;;;;51.05;24.25;;;8.90;63.30;;;;;;4937991;28;20073;-63
2020/12/08 03:54:19;;;;;;;48.40;24.20;;;8.90;63.40;;;;;;4954430;28;20368;-63
2020/12/08 03:56:45;;;;;;;48.15;23.83;;;8.90;63.40;;;;;;4930492;28;20428;-63
2020/12/08 03:59:16;;;;;;;49.53;23.75;;;8.90;64.10;;;;;;4938764;28;20053;-63
2020/12/08 04:01:43;;;;;;;53.40;24.70;;;8.90;63.40;;;;;;4936575;28;20570;-63
2020/12/08 04:04:08;;;;;;;50.58;25.05;;;8.80;63.30;;;;;;4941660;28;20039;-63
2020/12/08 04:06:34;;;;;;;55.45;25.75;;;8.80;63.30;;;;;;4940324;28;21059;-63
2020/12/08 04:09:00;;;;;;;47.85;23.33;;;8.80;63.30;;;;;;4933228;28;20169;-63
2020/12/08 04:11:25;;;;;;;46.63;23.55;;;8.80;63.40;;;;;;4935091;28;20051;-63
2020/12/08 04:13:51;;;;;;;48.95;23.65;;;8.80;63.40;;;;;;4935110;28;20047;-63
2020/12/08 04:16:16;;;;;;;51.35;25.10;;;8.70;63.40;;;;;;4944024;28;20039;-63
2020/12/08 04:18:42;;;;;;;50.42;25.15;;;8.70;63.40;;;;;;4943083;28;20138;-63
2020/12/08 04:21:08;;;;;;;50.67;23.42;;;8.70;63.40;;;;;;4935706;28;20081;-63
2020/12/08 04:23:33;;;;;;;48.20;24.10;;;8.70;63.50;;;;;;4939473;28;20400;-65
2020/12/08 04:26:00;;;;;;;49.17;24.15;;;8.70;63.50;;;;;;4933936;28;20048;-63
2020/12/08 04:28:25;;;;;;;46.72;23.63;;;8.70;63.50;;;;;;4939582;28;20057;-63
2020/12/08 04:30:51;;;;;;;49.33;23.88;;;8.70;63.50;;;;;;4939377;28;20031;-63
2020/12/08 04:33:17;;;;;;;51.30;24.40;;;8.70;63.50;;;;;;4929444;28;20109;-63
2020/12/08 04:35:42;;;;;;;47.65;24.02;;;8.70;63.40;;;;;;4934667;28;20039;-63
2020/12/08 04:38:09;;;;;;;47.63;23.25;;;8.70;63.40;;;;;;4929380;28;20684;-63
2020/12/08 04:40:35;;;;;;;46.10;23.40;;;8.70;63.40;;;;;;4932246;28;20072;-63
2020/12/08 04:43:03;;;;;;;46.63;24.48;;;8.70;63.40;;;;;;4923356;28;20136;-63
2020/12/08 04:45:29;;;;;;;47.55;24.45;;;8.70;63.40;;;;;;4937588;28;20038;-63
2020/12/08 04:48:01;;;;;;;45.72;23.38;;;8.80;63.40;;;;;;4935417;28;20294;-63
2020/12/08 04:50:27;;;;;;;44.75;23.60;;;8.70;63.40;;;;;;4934781;28;20151;-63
2020/12/08 04:52:53;;;;;;;45.35;23.45;;;8.70;63.40;;;;;;4933347;28;20642;-63
2020/12/08 04:55:19;;;;;;;43.05;23.23;;;8.80;63.40;;;;;;4937881;28;20123;-63
2020/12/08 04:57:44;;;;;;;45.08;24.05;;;8.80;63.40;;;;;;4937309;28;20042;-63
2020/12/08 05:00:12;;;;;;;48.45;23.35;;;8.80;63.30;;;;;;4936820;28;20109;-63
2020/12/08 05:02:50;;;;;;;45.50;22.67;;;8.80;63.30;;;;;;4931415;28;20039;-63
2020/12/08 05:05:17;;;;;;;45.08;22.52;;;8.80;63.30;;;;;;4938947;28;20493;-67
2020/12/08 05:07:43;;;;;;;43.20;23.38;;;8.80;63.30;;;;;;4933707;28;20126;-64
2020/12/08 05:10:09;;;;;;;41.60;23.48;;;8.80;63.40;;;;;;4935819;28;20046;-63
2020/12/08 05:12:35;;;;;;;45.13;23.48;;;8.80;63.30;;;;;;4945280;28;20508;-63
2020/12/08 05:15:00;;;;;;;43.88;24.23;;;8.80;63.30;;;;;;4941385;28;20046;-63
2020/12/08 05:17:28;;;;;;;43.30;22.40;;;8.80;63.30;;;;;;4959190;23;20043;-65
2020/12/08 05:20:05;;;;;;;46.35;23.60;;;8.80;63.30;;;;;;4914452;28;20055;-65
2020/12/08 05:22:30;;;;;;;43.83;23.25;;;8.80;63.40;;;;;;4914730;28;23676;-65
2020/12/08 05:25:13;;;;;;;41.22;22.80;;;8.80;63.30;;;;;;4926176;28;20126;-65
2020/12/08 05:27:42;;;;;;;50.28;23.77;;;8.80;63.30;;;;;;4914976;28;20043;-64
2020/12/08 05:30:08;;;;;;;43.72;24.80;;;8.80;63.20;;;;;;4921669;28;20052;-64
2020/12/08 05:32:36;;;;;;;44.40;23.48;;;8.80;63.20;;;;;;4918576;28;20079;-64
2020/12/08 05:35:07;;;;;;;42.33;22.55;;;8.90;63.20;;;;;;4924536;28;20512;-64
2020/12/08 05:37:40;;;;;;;46.22;24.90;;;8.80;63.20;;;;;;4914601;28;20146;-64
2020/12/08 05:40:12;;;;;;;43.22;22.80;;;8.90;63.30;;;;;;4920026;28;20047;-64
2020/12/08 05:42:39;;;;;;;41.13;21.90;;;8.90;63.20;;;;;;4925250;28;20042;-64
2020/12/08 05:45:11;;;;;;;42.75;24.02;;;8.90;63.20;;;;;;4927037;28;20094;-65
2020/12/08 05:47:58;;;;;;;47.17;23.40;;;8.90;63.20;;;;;;4913242;28;20050;-64
2020/12/08 05:50:27;;;;;;;44.03;24.33;;;8.90;63.30;;;;;;4919793;28;20074;-64
2020/12/08 05:52:54;;;;;;;48.55;23.50;;;8.90;63.20;;;;;;4922268;28;20074;-64
2020/12/08 05:55:22;;;;;;;44.67;23.65;;;8.90;63.20;;;;;;4918671;28;20400;-64
2020/12/08 05:57:48;;;;;;;42.42;23.20;;;8.90;63.20;;;;;;4911158;28;20461;-65
2020/12/08 06:00:27;;;;;;;44.17;22.77;;;8.90;63.20;;;;;;4919283;28;20411;-64
2020/12/08 06:02:54;;;;;;;45.10;23.80;;;8.90;63.20;;;;;;4918322;28;20370;-64
2020/12/08 06:05:28;;;;;;;45.83;24.20;;;8.80;63.10;;;;;;4915699;28;20043;-64
2020/12/08 06:07:54;;;;;;;42.95;22.95;;;8.80;63.20;;;;;;4915415;28;20282;-64
2020/12/08 06:10:20;;;;;;;41.03;22.50;;;8.80;63.10;;;;;;4918622;28;20055;-65
2020/12/08 06:12:59;;;;;;;45.42;23.67;;;8.90;63.20;;;;;;4928627;28;20042;-65
2020/12/08 06:15:26;;;;;;;43.95;23.00;;;8.80;63.20;;;;;;4931183;28;20045;-65
2020/12/08 06:17:53;;;;;;;44.17;24.23;;;8.80;63.20;;;;;;4921279;28;20055;-65
2020/12/08 06:20:20;;;;;;;49.20;23.83;;;8.80;63.20;;;;;;4925924;28;20059;-65
2020/12/08 06:22:58;;;;;;;53.22;24.67;;;8.90;63.30;;;;;;4927189;28;20042;-65
2020/12/08 06:25:25;;;;;;;42.40;22.55;;;8.80;63.20;;;;;;4930306;28;20080;-65
2020/12/08 06:27:54;;;;;;;40.75;22.75;;;8.80;63.20;;;;;;4928105;28;20539;-65
2020/12/08 06:30:21;;;;;;;42.40;22.70;;;8.80;63.20;;;;;;4927858;28;20052;-65
2020/12/08 06:32:48;;;;;;;41.67;22.90;;;8.80;63.20;;;;;;4938591;28;20259;-65
2020/12/08 06:35:16;;;;;;;41.42;22.58;;;8.90;63.20;;;;;;4927880;28;20044;-65
2020/12/08 06:37:56;;;;;;;44.75;22.95;;;8.90;63.20;;;;;;4926282;28;20094;-65
2020/12/08 06:40:24;;;;;;;44.65;23.20;;;8.90;63.20;;;;;;4926960;28;20046;-65
2020/12/08 06:42:51;;;;;;;39.00;22.20;;;8.90;63.20;;;;;;4931332;28;20044;-65
2020/12/08 06:45:22;;;;;;;42.25;22.75;;;8.90;63.20;;;;;;4933419;28;20039;-65
2020/12/08 06:47:48;;;;;;;41.40;21.83;;;8.90;63.20;;;;;;4932981;28;20064;-65
2020/12/08 06:50:25;;;;;;;40.90;22.45;;;8.90;63.20;;;;;;4931461;28;20047;-65
2020/12/08 06:52:52;;;;;;;39.72;21.25;;;8.90;63.20;;;;;;4933467;28;20133;-65
2020/12/08 06:55:18;;;;;;;40.72;21.98;;;8.90;63.20;;;;;;4933703;28;20082;-65
2020/12/08 06:57:44;;;;;;;42.97;22.70;;;8.90;63.30;;;;;;4929314;28;20134;-65
2020/12/08 07:00:11;;;;;;;43.05;21.58;;;8.90;63.90;;;;;;4933317;28;20075;-65
2020/12/08 07:02:51;;;;;;;42.22;21.20;;;8.90;63.30;;;;;;4932766;28;20074;-65
2020/12/08 07:05:22;;;;;;;38.10;20.88;;;8.90;63.20;;;;;;4933866;28;20043;-65
2020/12/08 07:07:49;;;;;;;40.17;22.00;;;8.90;63.20;;;;;;4931899;28;20039;-65
2020/12/08 07:10:16;;;;;;;44.45;21.83;;;8.90;63.30;;;;;;4934270;28;20050;-65
2020/12/08 07:12:46;;;;;;;47.65;22.20;;;8.90;63.30;;;;;;4930223;28;20035;-65
2020/12/08 07:15:26;;;;;;;44.45;20.45;;;8.90;63.30;;;;;;4925052;28;20551;-65
2020/12/08 07:17:57;;;;;;;45.50;21.42;;;8.90;63.30;;;;;;4921638;28;20055;-65
2020/12/08 07:20:26;;;;;;;42.95;21.48;;;8.90;63.30;;;;;;4927361;28;20043;-65
2020/12/08 07:22:52;;;;;;;43.10;21.35;;;8.90;63.30;;;;;;4931218;28;20039;-65
2020/12/08 07:25:19;;;;;;;45.60;22.17;;;8.90;63.30;;;;;;4934184;28;20043;-65
2020/12/08 07:27:56;;;;;;;40.60;21.15;;;8.90;63.30;;;;;;4929399;28;20158;-65
2020/12/08 07:30:24;;;;;;;43.05;22.10;;;8.90;63.30;;;;;;4947361;28;20433;-65
2020/12/08 07:32:53;;;;;;;38.15;20.95;;;8.90;63.30;;;;;;4935096;28;20047;-65
2020/12/08 07:35:22;;;;;;;41.47;21.02;;;8.90;63.30;;;;;;4930166;28;20050;-65
2020/12/08 07:37:50;;;;;;;40.70;20.15;;;8.90;63.30;;;;;;4927797;28;20051;-65
2020/12/08 07:40:15;;;;;;;37.70;20.77;;;8.90;63.30;;;;;;4919544;28;20129;-65
2020/12/08 07:42:49;;;;;;;38.75;21.42;;;9.00;63.30;;;;;;4927079;28;20091;-65
2020/12/08 07:45:15;;;;;;;36.95;20.90;;;9.00;63.30;;;;;;4930488;28;20100;-65
2020/12/08 07:47:43;;;;;;;39.25;21.17;;;9.00;63.30;;;;;;4922638;28;20115;-65
2020/12/08 07:50:28;;;;;;;39.65;21.60;;;9.00;63.20;;;;;;4928733;28;20043;-65
2020/12/08 07:53:05;;;;;;;43.45;22.15;;;9.00;63.30;;;;;;4928296;28;20062;-65
2020/12/08 07:55:45;;;;;;;39.80;21.05;;;9.00;63.20;;;;;;4929959;28;20209;-65
2020/12/08 07:58:11;;;;;;;40.88;22.00;;;9.10;63.30;;;;;;4926976;28;20047;-65
2020/12/08 08:00:37;;;;;;;40.95;21.08;;;9.10;63.20;;;;;;4920021;28;20158;-65
2020/12/08 08:03:04;;;;;;;37.55;20.60;;;9.10;63.20;;;;;;4928139;28;20050;-65
2020/12/08 08:05:31;;;;;;;38.00;20.75;;;9.10;63.30;;;;;;4925518;28;20050;-65
2020/12/08 08:07:57;;;;;;;37.10;19.70;;;9.10;63.30;;;;;;4940035;28;20035;-65
2020/12/08 08:10:22;;;;;;;39.75;20.70;;;9.20;63.30;;;;;;4920766;28;20058;-65
2020/12/08 08:12:48;;;;;;;38.60;20.20;;;9.20;63.30;;;;;;4928699;28;20040;-65
2020/12/08 08:15:14;;;;;;;37.50;19.58;;;9.20;63.20;;;;;;4923599;28;20050;-65
2020/12/08 08:17:39;;;;;;;35.67;20.42;;;9.20;63.20;;;;;;4922172;28;20145;-65
2020/12/08 08:20:06;;;;;;;37.35;20.55;;;9.30;63.40;;;;;;4939029;28;21341;-65
2020/12/08 08:22:32;;;;;;;40.63;20.20;;;9.30;63.20;;;;;;4924530;28;20043;-65
2020/12/08 08:24:58;;;;;;;35.40;20.50;;;9.30;63.90;;;;;;4925659;28;20051;-66
2020/12/08 08:27:24;;;;;;;36.05;20.10;;;9.30;63.20;;;;;;4920833;28;20122;-65
2020/12/08 08:29:49;;;;;;;35.92;20.42;;;9.40;63.20;;;;;;4931014;28;20061;-65
2020/12/08 08:32:15;;;;;;;44.22;19.60;;;9.40;63.10;;;;;;4923470;28;20504;-65
2020/12/08 08:34:41;;;;;;;40.30;20.52;;;9.40;63.10;;;;;;4927019;28;20052;-66
2020/12/08 08:37:06;;;;;;;37.22;20.58;;;9.40;63.00;;;;;;4922820;28;20050;-66
2020/12/08 08:39:32;;;;;;;36.03;19.42;;;9.40;63.00;;;;;;4913996;28;20046;-68
2020/12/08 08:41:58;;;;;;;35.63;19.67;;;9.40;63.00;;;;;;4922540;28;20476;-66
2020/12/08 08:44:24;;;;;;;35.17;19.75;;;9.40;63.00;;;;;;4923176;28;20414;-68
2020/12/08 08:46:49;;;;;;;37.22;20.67;;;9.40;63.00;;;;;;4919210;28;20046;-66
2020/12/08 08:49:15;;;;;;;35.15;20.05;;;9.40;63.00;;;;;;4919787;28;20765;-66
2020/12/08 08:51:42;;;;;;;33.95;19.88;;;9.50;63.00;;;;;;4920249;28;20350;-66
2020/12/08 08:54:08;;;;;;;34.22;19.23;;;9.50;62.90;;;;;;4925478;28;20094;-66
2020/12/08 08:56:34;;;;;;;37.97;18.80;;;9.50;62.90;;;;;;4927212;28;20580;-66
2020/12/08 08:58:59;;;;;;;30.77;17.67;;;9.50;63.00;;;;;;4924854;28;20048;-66
2020/12/08 09:01:25;;;;;;;33.30;19.80;;;9.50;63.00;;;;;;4926775;28;20965;-65
2020/12/08 09:03:50;;;;;;;35.85;20.17;;;9.60;62.90;;;;;;4926647;28;20048;-66
2020/12/08 09:06:16;;;;;;;37.45;20.38;;;9.60;62.80;;;;;;4926500;28;20037;-66
2020/12/08 09:08:42;;;;;;;35.45;19.50;;;9.60;62.80;;;;;;4923376;28;20036;-65
2020/12/08 09:11:08;;;;;;;34.97;20.38;;;9.70;62.90;;;;;;4924920;28;20544;-65
2020/12/08 09:13:35;;;;;;;39.83;19.83;;;9.70;63.00;;;;;;4927084;28;20066;-65
2020/12/08 09:16:00;;;;;;;37.05;20.33;;;9.80;62.80;;;;;;4929722;28;20043;-65
2020/12/08 09:18:26;;;;;;;41.10;20.25;;;9.80;63.50;;;;;;4921416;28;20456;-65
2020/12/08 09:20:52;;;;;;;36.40;21.05;;;9.90;62.70;;;;;;4923426;28;20107;-65
2020/12/08 09:23:20;;;;;;;36.05;19.83;;;9.90;62.70;;;;;;4926632;28;20048;-65
2020/12/08 09:25:45;;;;;;;34.30;20.35;;;9.90;62.60;;;;;;4943219;28;20043;-65
2020/12/08 09:28:11;;;;;;;44.90;21.77;;;10.00;62.50;;;;;;4928365;28;20095;-65
2020/12/08 09:30:37;;;;;;;38.55;20.20;;;10.10;62.50;;;;;;4931706;28;20055;-66
2020/12/08 09:33:02;;;;;;;35.25;20.23;;;10.10;62.50;;;;;;4931470;28;20035;-65
2020/12/08 09:35:28;;;;;;;33.80;19.52;;;10.10;62.40;;;;;;4931827;28;20044;-65
2020/12/08 09:37:53;;;;;;;35.22;20.05;;;10.10;62.40;;;;;;4929448;28;20048;-65
2020/12/08 09:40:20;;;;;;;34.47;19.77;;;10.20;62.30;;;;;;4930822;28;20047;-65
2020/12/08 09:42:47;;;;;;;36.90;20.20;;;10.20;62.20;;;;;;4927046;28;20049;-65
2020/12/08 09:45:13;;;;;;;36.10;20.60;;;10.20;62.20;;;;;;4929773;28;20074;-65
2020/12/08 09:47:39;;;;;;;33.63;19.33;;;10.30;62.20;;;;;;4930058;28;20408;-65
2020/12/08 09:50:06;;;;;;;36.33;18.88;;;10.30;62.00;;;;;;4933318;28;20074;-65
2020/12/08 09:52:32;;;;;;;33.17;19.45;;;10.30;61.90;;;;;;4930783;28;20539;-65
2020/12/08 09:54:58;;;;;;;34.17;20.08;;;10.40;62.00;;;;;;4931025;28;20069;-65
2020/12/08 09:57:24;;;;;;;32.25;19.35;;;10.40;61.90;;;;;;4935097;28;20050;-65
2020/12/08 09:59:53;;;;;;;34.25;19.65;;;10.50;61.80;;;;;;4925111;28;20401;-65
2020/12/08 10:02:22;;;;;;;35.65;19.15;;;10.50;61.60;;;;;;4932809;28;20047;-65
2020/12/08 10:04:48;;;;;;;31.95;19.02;;;10.50;61.60;;;;;;4935946;28;20511;-65
2020/12/08 10:07:15;;;;;;;29.45;18.80;;;10.60;61.50;;;;;;4927328;28;20047;-65
2020/12/08 10:09:43;;;;;;;29.60;17.98;;;10.60;61.30;;;;;;4934182;28;20850;-65
2020/12/08 10:12:09;;;;;;;31.10;18.85;;;10.60;61.20;;;;;;4934887;28;20043;-65
2020/12/08 10:14:35;;;;;;;31.88;18.38;;;10.60;61.20;;;;;;4929214;28;20386;-66
2020/12/08 10:17:01;;;;;;;35.17;18.77;;;10.60;61.10;;;;;;4934148;28;20121;-65
2020/12/08 10:19:27;;;;;;;30.05;17.80;;;10.50;61.00;;;;;;4932386;28;20163;-65
2020/12/08 10:21:56;;;;;;;31.00;17.60;;;10.50;61.00;;;;;;4932372;28;20469;-65
2020/12/08 10:24:22;;;;;;;31.30;17.40;;;10.50;61.00;;;;;;4933201;28;20147;-65
2020/12/08 10:26:47;;;;;;;28.95;17.23;;;10.60;61.00;;;;;;4934831;28;20043;-65
2020/12/08 10:29:13;;;;;;;28.10;17.52;;;10.60;61.60;;;;;;4935159;28;20500;-65
2020/12/08 10:31:39;;;;;;;29.60;17.17;;;10.60;60.80;;;;;;4934030;28;20230;-65
2020/12/08 10:34:05;;;;;;;28.40;17.17;;;10.60;60.60;;;;;;4944387;28;20046;-65
2020/12/08 10:36:33;;;;;;;26.45;16.25;;;10.60;60.60;;;;;;4932336;28;20070;-65
2020/12/08 10:38:58;;;;;;;27.83;17.13;;;10.60;60.50;;;;;;4928317;28;20492;-65
2020/12/08 10:41:26;;;;;;;30.92;18.40;;;10.60;60.40;;;;;;4931031;28;20047;-65
2020/12/08 10:43:51;;;;;;;28.23;17.13;;;10.50;60.20;;;;;;4933109;28;20341;-65
2020/12/08 10:46:17;;;;;;;28.92;17.75;;;10.50;60.30;;;;;;4925879;28;20034;-65
2020/12/08 10:48:43;;;;;;;30.75;17.75;;;10.50;60.40;;;;;;4932474;28;20043;-65
2020/12/08 10:51:08;;;;;;;34.03;19.30;;;10.50;60.40;;;;;;4932714;28;20032;-65
2020/12/08 10:53:34;;;;;;;29.63;16.80;;;10.50;60.50;;;;;;4926100;28;20161;-65
2020/12/08 10:56:00;;;;;;;30.33;16.95;;;10.50;60.50;;;;;;4930580;28;20287;-65
2020/12/08 10:58:25;;;;;;;27.90;16.85;;;10.50;60.50;;;;;;4931866;28;20448;-65
2020/12/08 11:00:51;;;;;;;28.40;16.23;;;10.50;60.40;;;;;;4929740;28;20043;-65
2020/12/08 11:03:17;;;;;;;28.80;16.88;;;10.50;60.40;;;;;;4932217;28;20070;-65
2020/12/08 11:05:42;;;;;;;27.52;15.63;;;10.50;60.50;;;;;;4927185;28;20484;-65
2020/12/08 11:08:10;;;;;;;26.77;16.17;;;10.50;60.50;;;;;;4931683;28;20039;-65
2020/12/08 11:10:35;;;;;;;29.45;16.80;;;10.50;60.40;;;;;;4931788;28;20051;-65
2020/12/08 11:13:01;;;;;;;28.60;16.98;;;10.50;60.40;;;;;;4931389;28;20043;-65
2020/12/08 11:15:27;;;;;;;27.02;16.65;;;10.50;60.40;;;;;;4929755;28;20552;-65
2020/12/08 11:17:52;;;;;;;25.48;16.45;;;10.50;60.20;;;;;;4945581;23;20074;-65
2020/12/08 11:20:19;;;;;;;25.80;16.23;;;10.50;60.10;;;;;;4940114;28;20039;-63
2020/12/08 11:22:44;;;;;;;27.45;16.13;;;10.50;60.00;;;;;;4945204;28;20551;-63
2020/12/08 11:25:10;;;;;;;26.40;15.88;;;10.50;60.00;;;;;;4950258;28;20072;-63
2020/12/08 11:27:36;;;;;;;27.55;16.17;;;10.50;60.10;;;;;;4954569;28;20042;-62
2020/12/08 11:30:02;;;;;;;26.52;15.85;;;10.50;60.10;;;;;;4948223;28;20415;-63
2020/12/08 11:32:28;;;;;;;28.90;16.55;;;10.50;60.00;;;;;;4952274;28;20038;-62
2020/12/08 11:34:54;;;;;;;29.42;17.17;;;10.50;60.00;;;;;;4951398;28;20455;-62
2020/12/08 11:37:19;;;;;;;29.90;18.30;;;10.50;60.00;;;;;;4955813;28;20455;-62
2020/12/08 11:39:45;;;;;;;30.55;17.40;;;10.50;59.90;;;;;;4949279;28;20043;-63
2020/12/08 11:42:13;;;;;;;30.20;17.00;;;10.50;59.90;;;;;;4954320;28;20043;-62
2020/12/08 11:44:39;;;;;;;35.28;18.52;;;10.50;60.00;;;;;;4946822;28;20665;-62
2020/12/08 11:47:05;;;;;;;29.40;17.63;;;10.60;60.00;;;;;;4948197;28;20054;-63
2020/12/08 11:49:32;;;;;;;30.27;16.55;;;10.60;59.90;;;;;;4954160;28;20065;-62
2020/12/08 11:51:58;;;;;;;31.17;17.15;;;10.60;60.50;;;;;;4954855;28;20058;-63
2020/12/08 11:54:24;;;;;;;29.60;17.00;;;10.60;59.70;;;;;;4952298;28;20094;-62
2020/12/08 11:56:49;;;;;;;31.25;18.50;;;10.60;59.70;;;;;;4954299;28;20051;-62
2020/12/08 11:59:16;;;;;;;29.75;18.40;;;10.60;59.60;;;;;;4949716;28;20467;-62
2020/12/08 12:01:42;;;;;;;27.55;17.23;;;10.60;59.60;;;;;;4951256;28;20757;-62
2020/12/08 12:04:07;;;;;;;31.52;17.65;;;10.60;59.70;;;;;;4950314;28;20138;-62
2020/12/08 12:06:33;;;;;;;31.15;18.67;;;10.60;59.60;;;;;;4951978;28;20110;-63
2020/12/08 12:08:59;;;;;;;29.88;16.92;;;10.60;60.20;;;;;;4954107;28;20256;-62
2020/12/08 12:11:24;;;;;;;36.60;18.15;;;10.60;59.60;;;;;;4953620;28;20142;-62
2020/12/08 12:13:50;;;;;;;28.90;16.88;;;10.60;59.60;;;;;;4952805;28;20042;-62
2020/12/08 12:16:17;;;;;;;32.88;18.13;;;10.60;59.60;;;;;;4947121;28;20181;-62
2020/12/08 12:18:42;;;;;;;29.88;17.58;;;10.60;59.60;;;;;;4950787;28;20039;-63
2020/12/08 12:21:08;;;;;;;31.98;17.73;;;10.70;59.60;;;;;;4951689;28;20035;-62
2020/12/08 12:23:34;;;;;;;34.03;18.27;;;10.70;59.70;;;;;;4954083;28;20493;-62
2020/12/08 12:25:59;;;;;;;32.97;18.48;;;10.70;59.60;;;;;;4950986;28;20050;-63
2020/12/08 12:28:26;;;;;;;34.75;18.98;;;10.70;59.50;;;;;;4953251;28;20503;-62
2020/12/08 12:30:52;;;;;;;32.58;18.33;;;10.70;59.50;;;;;;4952936;28;20042;-63
2020/12/08 12:33:17;;;;;;;29.52;17.05;;;10.80;59.50;;;;;;4955828;28;20068;-62